»·PEaware :: DAL165 KLAS-KSFO

DAL165 :: KLAS-KSFO

FLIGHT INFORMATION

Flight Status: Arrived
Operator:
Delta Air Lines
More flights by this operator :: More flights under this callsign
Pilot: Keith A. (7560)
Aircraft: BOEING 737-800
(B738)
More flights by this aircraft type
Origin: KLAS McCarran Intl
United States
Destination: KSFO San Francisco Intl
United States
More flights between these airports :: More routes between these airports
Route: +SHEAD1 KENNO RUSME DYAMD3
File this flight plan on PilotEdge
Remarks: / L
Altitude:
(Current/Filed)
27,000ft
Speed:
(Current/Filed)
115kts
Departed: 12-Oct-17 07:08 PM
Arrived: 12-Oct-17 08:22 PM
Distance/Time
Traveled:
359nm/1:13
Distance/Time
To Go:
Arrived

Flight Plot

Page will automatically refresh every two minutes.

Flight plan parsing failed; only flown route is shown


Map Options




Map Legend


Flown Route
Filed Route
Departure Airport
Arrival Airport
Navaid (VOR, NDB)
Fix

Horizontal Profiles

Position Reports

Time Latitude Longitude Heading Altitude Ground
Speed
12-Oct-17 18:50 36.080549 -115.145672 270 2092ft 0kts
12-Oct-17 18:51 36.080549 -115.145672 270 2092ft 0kts
12-Oct-17 18:52 36.080549 -115.145672 270 2092ft 0kts
12-Oct-17 18:53 36.080549 -115.145672 270 2092ft 0kts
12-Oct-17 18:54 36.080549 -115.145672 270 2092ft 0kts
12-Oct-17 18:55 36.080549 -115.145672 270 2092ft 0kts
12-Oct-17 18:56 36.080549 -115.145672 270 2092ft 0kts
12-Oct-17 18:57 36.080549 -115.145672 270 2092ft 0kts
12-Oct-17 18:58 36.080553 -115.145222 261 2091ft 3kts
12-Oct-17 18:59 36.080777 -115.144869 173 2089ft 0kts
12-Oct-17 19:00 36.080818 -115.144874 173 2089ft 0kts
12-Oct-17 19:01 36.080491 -115.144839 175 2090ft 5kts
12-Oct-17 19:02 36.079204 -115.144856 179 2092ft 7kts
12-Oct-17 19:03 36.078284 -115.142303 89 2086ft 10kts
12-Oct-17 19:04 36.078274 -115.139177 89 2077ft 8kts
12-Oct-17 19:05 36.078289 -115.135780 88 2067ft 12kts
12-Oct-17 19:06 36.078273 -115.132536 89 2057ft 8kts
12-Oct-17 19:07 36.078304 -115.129137 91 2047ft 7kts
12-Oct-17 19:08 36.078282 -115.125906 89 2041ft 11kts
12-Oct-17 19:09 36.078326 -115.123157 95 2036ft 7kts
12-Oct-17 19:10 36.077531 -115.121546 134 2037ft 3kts
12-Oct-17 19:11 36.076425 -115.122470 267 2039ft 20kts
12-Oct-17 19:12 36.076313 -115.161608 270 2375ft 201kts
12-Oct-17 19:13 36.070115 -115.231119 250 3108ft 256kts
12-Oct-17 19:14 36.010057 -115.282062 203 6306ft 283kts
12-Oct-17 19:15 35.945193 -115.334141 225 9500ft 289kts
12-Oct-17 19:16 35.894513 -115.407024 251 11258ft 344kts
12-Oct-17 19:17 35.888598 -115.519047 270 14828ft 342kts
12-Oct-17 19:18 35.890306 -115.636351 270 17873ft 347kts
12-Oct-17 19:19 35.892113 -115.744349 269 19353ft 357kts
12-Oct-17 19:20 35.894095 -115.863773 269 22106ft 354kts
12-Oct-17 19:21 35.912050 -115.982328 299 24256ft 377kts
12-Oct-17 19:22 35.985214 -116.073306 308 26049ft 394kts
12-Oct-17 19:24 36.065001 -116.165711 308 27722ft 402kts
12-Oct-17 19:25 36.145115 -116.258459 308 28031ft 420kts
12-Oct-17 19:26 36.229350 -116.356029 308 28029ft 418kts
12-Oct-17 19:27 36.313167 -116.453483 308 28032ft 422kts
12-Oct-17 19:28 36.401063 -116.556017 308 28027ft 443kts
12-Oct-17 19:29 36.487137 -116.656686 308 28030ft 442kts
12-Oct-17 19:30 36.570208 -116.750584 317 28010ft 440kts
12-Oct-17 19:31 36.670371 -116.828572 319 28043ft 432kts
12-Oct-17 19:32 36.768956 -116.903656 319 28038ft 432kts
12-Oct-17 19:33 36.871192 -116.981674 319 28083ft 435kts
12-Oct-17 19:34 36.973633 -117.060095 319 28174ft 437kts
12-Oct-17 19:35 37.073382 -117.136626 318 28173ft 415kts
12-Oct-17 19:36 37.166303 -117.208369 318 28180ft 417kts
12-Oct-17 19:37 37.266718 -117.285910 318 28167ft 428kts
12-Oct-17 19:38 37.354431 -117.369940 310 28172ft 391kts
12-Oct-17 19:39 37.440751 -117.462754 311 28134ft 419kts
12-Oct-17 19:40 37.500793 -117.569381 284 28125ft 366kts
12-Oct-17 19:41 37.510555 -117.687329 270 28123ft 364kts
12-Oct-17 19:42 37.518495 -117.813247 273 28102ft 364kts
12-Oct-17 19:43 37.528305 -117.938004 273 28092ft 364kts
12-Oct-17 19:44 37.538255 -118.063645 273 28090ft 364kts
12-Oct-17 19:45 37.548098 -118.189426 273 28088ft 364kts
12-Oct-17 19:46 37.557616 -118.312913 273 28085ft 364kts
12-Oct-17 19:47 37.567130 -118.437810 273 28125ft 364kts
12-Oct-17 19:48 37.576030 -118.556367 273 28179ft 363kts
12-Oct-17 19:49 37.583974 -118.663783 273 28209ft 363kts
12-Oct-17 19:50 37.592420 -118.779330 273 28222ft 363kts
12-Oct-17 19:51 37.601328 -118.904651 274 28221ft 364kts
12-Oct-17 19:52 37.610285 -119.030941 276 28218ft 366kts
12-Oct-17 19:53 37.619209 -119.156655 276 28216ft 366kts
12-Oct-17 19:54 37.627907 -119.282939 276 28214ft 367kts
12-Oct-17 19:55 37.636565 -119.410563 276 28211ft 367kts
12-Oct-17 19:56 37.645022 -119.537271 276 28207ft 367kts
12-Oct-17 19:57 37.653231 -119.662729 276 28154ft 367kts
12-Oct-17 19:58 37.660618 -119.777055 275 28106ft 367kts
12-Oct-17 19:59 37.668720 -119.904316 276 28096ft 368kts
12-Oct-17 20:00 37.676606 -120.030661 276 28090ft 368kts
12-Oct-17 20:01 37.684364 -120.157051 276 28085ft 368kts
12-Oct-17 20:02 37.692044 -120.285253 276 27461ft 369kts
12-Oct-17 20:03 37.696419 -120.413078 268 26106ft 372kts
12-Oct-17 20:04 37.682933 -120.542225 267 24759ft 374kts
12-Oct-17 20:05 37.670019 -120.652575 268 25898ft 283kts
12-Oct-17 20:06 37.658870 -120.747906 267 25243ft 296kts
12-Oct-17 20:07 37.646968 -120.846903 268 23808ft 292kts
12-Oct-17 20:08 37.634904 -120.947162 268 23117ft 297kts
12-Oct-17 20:09 37.621925 -121.046098 267 21790ft 294kts
12-Oct-17 20:10 37.608581 -121.146151 266 20543ft 289kts
12-Oct-17 20:11 37.594603 -121.248701 265 19188ft 333kts
12-Oct-17 20:12 37.581136 -121.364121 266 18621ft 347kts
12-Oct-17 20:13 37.567730 -121.480497 265 15154ft 331kts
12-Oct-17 20:14 37.556342 -121.576375 266 15077ft 246kts
12-Oct-17 20:15 37.537978 -121.674868 256 10801ft 305kts
12-Oct-17 20:16 37.516463 -121.768008 255 9470ft 266kts
12-Oct-17 20:17 37.496938 -121.849801 255 8309ft 254kts
12-Oct-17 20:18 37.499636 -121.930702 280 7494ft 249kts
12-Oct-17 20:19 37.510995 -122.013558 281 6766ft 239kts
12-Oct-17 20:20 37.522242 -122.092393 281 5895ft 219kts
12-Oct-17 20:21 37.531424 -122.156641 281 5077ft 166kts
12-Oct-17 20:22 37.548503 -122.206661 297 3693ft 158kts
12-Oct-17 20:23 37.566966 -122.251782 297 2455ft 145kts
12-Oct-17 20:24 37.583137 -122.294954 295 1486ft 133kts
12-Oct-17 20:25 37.601125 -122.333099 297 613ft 133kts
12-Oct-17 20:26 37.615836 -122.368535 301 12ft 81kts
12-Oct-17 20:27 37.618948 -122.377361 269 26ft 14kts
12-Oct-17 20:28 37.618831 -122.378683 226 28ft 5kts
12-Oct-17 20:29 37.617915 -122.380154 255 31ft 5kts

Navigation Log

Ident Type
Flight plan parsing failed, navigation log unavailable